Main page
METAR-TAF:

METAR-TAF

Airports :

Buenos Aires, Argentina

Aeroparque Jorge Newbery

latitude: 34-34S, longitude: 058-25W, elevation: 6 m

Current weather observation

The report was made 35 minutes ago, at 21:00 UTC
Wind 5 kt from the Northeast
Temperature 31°C
Humidity 59%
Pressure 1013 hPa
Visibility 10 km or more
no clouds below 1500 m and no cumulonimbus

METAR: SABE 212100Z 04005KT CAVOK 31/22 Q1013

Time: 18:35 (21:35 UTC)

Forecast

The report was made 4 hours and 35 minutes ago, at 17:00 UTC
Forecast valid from 21 at 18 UTC to 22 at 18 UTC
Wind 10 kt from the East/Northeast
Visibility 10 km or more
no clouds below 1500 m and no cumulonimbus
Becoming
from 22 at 02 UTC to 22 at 04 UTC
Wind 15 kt from the North/Northeast
Becoming
from 22 at 15 UTC to 22 at 18 UTC
Wind 10 kt from the East

TAF: SABE 211700Z 2118/2218 07010KT CAVOK TX32/2119Z TN24/2210Z BECMG 2202/2204 02015KT BECMG 2215/2218 09010KT

Weather observations and forecasts of more than 4000 airports (METAR and TAF reports).

The available stations are represented by yellow and red dots on the map.

Hover mouse over dot to see the name of the station.

Then click to see weather observations and forecasts.

To change the map : click on the green buttons with a black cross to zoom in, on the green button with a dash to zoom out, or on the green arrows for adjacent maps.


METAR-TAF: